createdAt,value
2024-02-28T00:02:03.268Z,3.50
2024-02-28T00:04:13.283Z,5.90
2024-02-28T00:06:23.451Z,3.90
2024-02-28T00:08:33.626Z,4.90
2024-02-28T00:10:43.675Z,4.70
2024-02-28T00:12:53.606Z,5.60
2024-02-28T00:15:03.597Z,2.50
2024-02-28T00:17:15.387Z,2.40
2024-02-28T00:19:26.964Z,3.40
2024-02-28T00:21:36.845Z,4.10
2024-02-28T00:23:46.994Z,3.40
2024-02-28T00:25:57.203Z,2.70
2024-02-28T00:28:07.269Z,4.30
2024-02-28T00:30:18.532Z,4.00
2024-02-28T00:32:28.693Z,4.90
2024-02-28T00:34:38.604Z,4.10
2024-02-28T00:36:55.594Z,3.30
2024-02-28T00:39:06.454Z,2.70
2024-02-28T00:41:16.776Z,2.40
2024-02-28T00:43:26.701Z,4.90
2024-02-28T00:45:36.520Z,4.70
2024-02-28T00:47:46.568Z,2.40
2024-02-28T00:49:57.686Z,4.60
2024-02-28T00:52:07.969Z,3.20
2024-02-28T00:54:18.152Z,3.30
2024-02-28T00:56:28.741Z,4.20
2024-02-28T00:58:38.665Z,4.20
2024-02-28T01:00:48.974Z,12.00
2024-02-28T01:02:59.063Z,4.10
2024-02-28T01:05:09.969Z,6.20
2024-02-28T01:07:20.452Z,6.30
2024-02-28T01:09:30.467Z,3.80
2024-02-28T01:11:40.673Z,4.50
2024-02-28T01:13:50.745Z,5.10
2024-02-28T01:16:01.540Z,4.50
2024-02-28T01:18:11.768Z,5.10
2024-02-28T01:20:22.106Z,6.50
2024-02-28T01:22:31.952Z,5.80
2024-02-28T01:24:42.249Z,6.40
2024-02-28T01:26:52.513Z,4.10
2024-02-28T01:29:02.437Z,4.50
2024-02-28T01:31:12.854Z,5.50
2024-02-28T01:33:23.057Z,3.60
2024-02-28T01:35:32.822Z,4.70
2024-02-28T01:37:43.089Z,4.50
2024-02-28T01:39:53.124Z,6.30
2024-02-28T01:42:03.027Z,5.50
2024-02-28T01:44:13.038Z,6.20
2024-02-28T01:46:29.506Z,5.80
2024-02-28T01:48:39.638Z,4.60
2024-02-28T01:50:49.562Z,4.60
2024-02-28T01:52:59.901Z,4.70
2024-02-28T01:55:12.067Z,4.40
2024-02-28T01:57:22.342Z,7.70
2024-02-28T01:59:33.164Z,7.10
2024-02-28T02:01:44.861Z,5.20
2024-02-28T02:03:55.055Z,6.30
2024-02-28T02:06:05.480Z,5.60
2024-02-28T02:08:15.503Z,6.80
2024-02-28T02:10:25.312Z,6.80
2024-02-28T02:12:35.320Z,6.50
2024-02-28T02:14:50.021Z,6.20
2024-02-28T02:16:59.975Z,6.20
2024-02-28T02:19:11.862Z,4.50
2024-02-28T02:21:25.894Z,6.40
2024-02-28T02:23:37.082Z,6.90
2024-02-28T02:25:51.590Z,5.20
2024-02-28T02:28:01.709Z,6.80
2024-02-28T02:30:13.571Z,5.00
2024-02-28T02:32:23.711Z,5.20
2024-02-28T02:34:34.280Z,4.50
2024-02-28T02:36:44.303Z,3.70
2024-02-28T02:38:54.052Z,5.30
2024-02-28T02:41:04.306Z,5.90
2024-02-28T02:43:14.295Z,8.30
2024-02-28T02:45:24.406Z,5.70
2024-02-28T02:47:34.279Z,5.80
2024-02-28T02:49:44.476Z,6.90
2024-02-28T02:51:54.642Z,6.00
2024-02-28T02:54:04.717Z,6.00
2024-02-28T02:56:14.675Z,8.10
2024-02-28T02:58:24.657Z,6.20
2024-02-28T03:00:34.534Z,5.20
2024-02-28T03:02:45.135Z,5.10
2024-02-28T03:04:54.900Z,7.70
2024-02-28T03:07:05.127Z,7.50
2024-02-28T03:09:15.099Z,7.40
2024-02-28T03:11:25.114Z,6.80
2024-02-28T03:13:34.868Z,4.60
2024-02-28T03:15:45.233Z,7.00
2024-02-28T03:17:55.325Z,7.60
2024-02-28T03:20:05.293Z,9.50
2024-02-28T03:22:15.249Z,6.70
2024-02-28T03:24:25.254Z,5.70
2024-02-28T03:26:34.982Z,6.00
2024-02-28T03:28:44.774Z,6.20
2024-02-28T03:30:54.960Z,6.70
2024-02-28T03:33:05.634Z,4.90
2024-02-28T03:35:15.635Z,7.00
2024-02-28T03:37:25.811Z,4.80
2024-02-28T03:39:35.720Z,6.10
2024-02-28T03:41:45.632Z,5.50
2024-02-28T03:43:55.962Z,5.50
2024-02-28T03:46:06.125Z,5.30
2024-02-28T03:48:16.011Z,6.10
2024-02-28T03:50:25.987Z,6.00
2024-02-28T03:52:35.932Z,5.50
2024-02-28T03:54:47.341Z,7.20
2024-02-28T03:56:57.821Z,8.50
2024-02-28T03:59:07.650Z,11.50
2024-02-28T04:01:18.315Z,9.20
2024-02-28T04:03:28.858Z,7.10
2024-02-28T04:05:38.786Z,7.00
2024-02-28T04:07:48.783Z,7.10
2024-02-28T04:09:58.810Z,10.20
2024-02-28T04:12:09.342Z,8.60
2024-02-28T04:14:19.187Z,8.20
2024-02-28T04:16:29.209Z,9.50
2024-02-28T04:18:39.464Z,7.70
2024-02-28T04:20:49.342Z,8.30
2024-02-28T04:22:59.477Z,6.60
2024-02-28T04:25:11.142Z,8.50
2024-02-28T04:27:21.154Z,7.00
2024-02-28T04:29:31.023Z,7.10
2024-02-28T04:31:43.271Z,7.20
2024-02-28T04:33:53.646Z,7.10
2024-02-28T04:36:03.638Z,11.10
2024-02-28T04:38:13.626Z,10.10
2024-02-28T04:40:24.051Z,7.30
2024-02-28T04:42:33.862Z,7.10
2024-02-28T04:44:43.749Z,10.20
2024-02-28T04:46:54.147Z,6.40
2024-02-28T04:49:04.069Z,5.10
2024-02-28T04:51:13.991Z,7.00
2024-02-28T04:53:24.043Z,10.90
2024-02-28T04:55:34.019Z,8.80
2024-02-28T04:57:44.137Z,6.60
2024-02-28T04:59:54.507Z,6.60
2024-02-28T05:02:05.016Z,6.60
2024-02-28T05:04:15.914Z,6.00
2024-02-28T05:06:25.728Z,7.30
2024-02-28T05:08:37.360Z,5.30
2024-02-28T05:10:47.379Z,5.60
2024-02-28T05:12:57.564Z,4.80
2024-02-28T05:15:08.787Z,4.10
2024-02-28T05:17:18.984Z,4.00
2024-02-28T05:19:28.936Z,3.30
2024-02-28T05:21:44.809Z,4.70
2024-02-28T05:23:54.753Z,3.90
2024-02-28T05:26:05.744Z,8.30
2024-02-28T05:28:15.417Z,4.80
2024-02-28T05:30:25.601Z,2.50
2024-02-28T05:32:35.621Z,2.60
2024-02-28T05:34:47.291Z,3.00
2024-02-28T05:36:57.234Z,6.20
2024-02-28T05:39:09.747Z,2.70
2024-02-28T05:41:20.963Z,2.90
2024-02-28T05:43:31.165Z,2.50
2024-02-28T05:45:41.629Z,2.70
2024-02-28T05:47:51.658Z,3.20
2024-02-28T05:50:01.885Z,2.70
2024-02-28T05:52:12.707Z,8.30
2024-02-28T05:54:22.744Z,4.90
2024-02-28T05:56:32.808Z,5.80
2024-02-28T05:58:42.713Z,6.40
2024-02-28T06:00:52.546Z,5.70
2024-02-28T06:03:02.605Z,6.20
2024-02-28T06:05:13.757Z,7.00
2024-02-28T06:07:25.906Z,8.40
2024-02-28T06:09:35.672Z,6.50
2024-02-28T06:11:45.986Z,9.60
2024-02-28T06:13:56.850Z,4.60
2024-02-28T06:16:07.502Z,6.60
2024-02-28T06:18:17.552Z,6.80
2024-02-28T06:20:27.348Z,7.80
2024-02-28T06:22:37.387Z,6.10
2024-02-28T06:24:47.272Z,6.20
2024-02-28T06:26:57.300Z,7.70
2024-02-28T06:29:08.011Z,6.70
2024-02-28T06:31:21.627Z,5.40
2024-02-28T06:33:31.433Z,5.80
2024-02-28T06:35:42.405Z,5.30
2024-02-28T06:37:53.405Z,4.90
2024-02-28T06:40:03.427Z,3.80
2024-02-28T06:42:13.321Z,3.40
2024-02-28T06:44:23.346Z,4.00
2024-02-28T06:46:33.341Z,4.40
2024-02-28T06:48:43.322Z,3.90
2024-02-28T06:50:53.566Z,6.90
2024-02-28T06:53:03.439Z,4.00
2024-02-28T06:55:15.568Z,2.60
2024-02-28T06:57:25.523Z,3.00
2024-02-28T06:59:35.972Z,4.60
2024-02-28T07:01:46.199Z,2.40
2024-02-28T07:03:56.183Z,3.80
2024-02-28T07:06:07.300Z,2.60
2024-02-28T07:08:17.252Z,4.70
2024-02-28T07:10:26.950Z,6.50
2024-02-28T07:12:36.886Z,8.30
2024-02-28T07:14:47.166Z,5.80
2024-02-28T07:16:57.140Z,7.10
2024-02-28T07:19:07.062Z,6.90
2024-02-28T07:21:17.026Z,5.50
2024-02-28T07:23:27.258Z,5.00
2024-02-28T07:25:37.097Z,5.50
2024-02-28T07:27:47.122Z,6.70
2024-02-28T07:29:57.044Z,5.30
2024-02-28T07:32:07.192Z,3.80
2024-02-28T07:34:17.889Z,6.40
2024-02-28T07:36:28.247Z,6.20
2024-02-28T07:38:38.364Z,4.00
2024-02-28T07:40:48.533Z,2.30
2024-02-28T07:42:58.383Z,2.50
2024-02-28T07:45:10.177Z,3.00
2024-02-28T07:47:20.677Z,3.10
2024-02-28T07:49:30.682Z,2.90
2024-02-28T07:51:42.188Z,3.30
2024-02-28T07:53:51.966Z,3.40
2024-02-28T07:56:02.318Z,4.30
2024-02-28T07:58:12.329Z,2.60
2024-02-28T08:00:22.663Z,2.90
2024-02-28T08:02:33.568Z,3.40
2024-02-28T08:04:43.530Z,3.00
2024-02-28T08:06:53.726Z,2.50
2024-02-28T08:09:05.763Z,2.50
2024-02-28T08:11:15.878Z,2.20
2024-02-28T08:13:26.280Z,2.60
2024-02-28T08:15:36.007Z,3.00
2024-02-28T08:17:46.349Z,2.00
2024-02-28T08:19:56.493Z,4.50
2024-02-28T08:22:06.816Z,2.60
2024-02-28T08:24:16.857Z,2.60
2024-02-28T08:26:27.127Z,2.20
2024-02-28T08:28:37.192Z,2.80
2024-02-28T08:30:47.216Z,3.00
2024-02-28T08:32:57.052Z,4.70
2024-02-28T08:35:07.519Z,3.60
2024-02-28T08:37:18.765Z,3.10
2024-02-28T08:39:28.803Z,3.30
2024-02-28T08:41:39.264Z,2.90
2024-02-28T08:43:49.045Z,2.80
2024-02-28T08:45:59.559Z,3.50
2024-02-28T08:48:10.953Z,2.70
2024-02-28T08:50:20.984Z,4.20
2024-02-28T08:52:31.208Z,3.20
2024-02-28T08:54:42.224Z,4.70
2024-02-28T08:56:56.771Z,3.40
2024-02-28T08:59:10.409Z,2.60
2024-02-28T09:01:23.643Z,4.50
2024-02-28T09:03:33.778Z,3.40
2024-02-28T09:05:43.714Z,3.60
2024-02-28T09:07:56.485Z,4.60
2024-02-28T09:12:14.473Z,3.50
2024-02-28T09:14:24.234Z,5.10
2024-02-28T09:16:34.051Z,2.40
2024-02-28T09:18:44.040Z,3.20
2024-02-28T09:20:53.788Z,3.40
2024-02-28T09:23:03.657Z,3.30
2024-02-28T09:25:14.186Z,3.80
2024-02-28T09:27:24.331Z,3.80
2024-02-28T09:29:34.484Z,4.40
2024-02-28T09:31:44.391Z,4.80
2024-02-28T09:33:55.559Z,4.90
2024-02-28T09:36:07.474Z,4.80
2024-02-28T09:38:17.686Z,3.80
2024-02-28T09:40:29.679Z,3.60
2024-02-28T09:42:39.766Z,4.20
2024-02-28T09:44:49.865Z,4.10
2024-02-28T09:46:59.802Z,5.20
2024-02-28T09:49:10.330Z,5.30
2024-02-28T09:51:25.430Z,4.60
2024-02-28T09:53:35.812Z,5.40
2024-02-28T09:55:46.007Z,7.50
2024-02-28T09:57:58.113Z,6.80
2024-02-28T10:00:11.514Z,8.30
2024-02-28T10:02:23.096Z,6.50
2024-02-28T10:04:33.190Z,7.30
2024-02-28T10:06:43.677Z,7.20
2024-02-28T10:08:54.728Z,6.30
2024-02-28T10:11:04.545Z,8.40
2024-02-28T10:13:14.736Z,9.30
2024-02-28T10:15:25.261Z,8.20
2024-02-28T10:17:35.067Z,7.40
2024-02-28T10:19:45.331Z,10.60
2024-02-28T10:21:55.508Z,8.90
2024-02-28T10:24:05.856Z,5.80
2024-02-28T10:26:16.401Z,6.10
2024-02-28T10:28:26.680Z,7.80
2024-02-28T10:30:44.205Z,7.90
2024-02-28T10:32:57.770Z,6.80
2024-02-28T10:35:12.174Z,5.90
2024-02-28T10:37:24.422Z,5.00
2024-02-28T10:39:36.905Z,5.90
2024-02-28T10:41:50.332Z,5.20
2024-02-28T10:44:00.064Z,9.40
2024-02-28T10:46:26.294Z,6.00
2024-02-28T10:48:42.049Z,6.40
2024-02-28T10:50:53.045Z,7.40
2024-02-28T10:53:08.302Z,7.80
2024-02-28T10:55:24.904Z,7.00
2024-02-28T10:57:36.218Z,5.70
2024-02-28T10:59:49.067Z,6.90
2024-02-28T11:01:58.997Z,7.00
2024-02-28T11:04:09.574Z,6.40
2024-02-28T11:06:25.961Z,3.70
2024-02-28T11:08:36.563Z,4.60
2024-02-28T11:10:49.903Z,5.30
2024-02-28T11:13:02.187Z,7.10
2024-02-28T11:15:21.460Z,7.90
2024-02-28T11:17:34.007Z,5.50
2024-02-28T11:19:43.904Z,6.10
2024-02-28T11:21:57.427Z,4.80
2024-02-28T11:24:08.172Z,6.60
2024-02-28T11:26:18.264Z,3.70
2024-02-28T11:28:28.442Z,4.90
2024-02-28T11:30:38.671Z,4.80
2024-02-28T11:32:48.817Z,5.60
2024-02-28T11:34:58.625Z,9.20
2024-02-28T11:37:09.219Z,5.40
2024-02-28T11:39:22.921Z,5.50
2024-02-28T11:41:33.481Z,6.80
2024-02-28T11:43:51.154Z,8.00
2024-02-28T11:46:02.773Z,7.10
2024-02-28T11:48:14.064Z,4.40
2024-02-28T11:50:24.966Z,4.30
2024-02-28T11:52:35.810Z,5.00
2024-02-28T11:54:45.644Z,6.00
2024-02-28T11:56:58.223Z,6.70
2024-02-28T11:59:09.964Z,6.10
2024-02-28T12:01:19.892Z,4.50
2024-02-28T12:03:29.846Z,5.50
2024-02-28T12:05:43.544Z,5.90
2024-02-28T12:07:56.613Z,5.10
2024-02-28T12:10:08.215Z,3.70
2024-02-28T12:12:20.144Z,3.80
2024-02-28T12:14:30.051Z,3.40
2024-02-28T12:16:41.354Z,2.30
2024-02-28T12:18:52.682Z,2.50
2024-02-28T12:21:02.736Z,1.90
2024-02-28T12:23:12.565Z,2.80
2024-02-28T12:25:22.350Z,3.10
2024-02-28T12:27:32.730Z,4.00
2024-02-28T12:29:42.605Z,3.00
2024-02-28T12:31:52.385Z,3.60
2024-02-28T12:34:02.718Z,4.80
2024-02-28T12:36:13.224Z,3.40
2024-02-28T12:38:24.344Z,2.90
2024-02-28T12:40:34.068Z,3.00
2024-02-28T12:42:44.693Z,3.40
2024-02-28T12:44:54.852Z,5.60
2024-02-28T12:47:04.763Z,5.00
2024-02-28T12:49:14.803Z,5.50
2024-02-28T12:51:44.776Z,6.80
2024-02-28T12:53:54.644Z,7.20
2024-02-28T12:56:04.476Z,6.00
2024-02-28T12:58:14.511Z,6.60
2024-02-28T13:00:25.055Z,7.00
2024-02-28T13:02:35.352Z,6.50
2024-02-28T13:04:45.441Z,4.80
2024-02-28T13:06:55.586Z,5.80
2024-02-28T13:09:06.450Z,5.30
2024-02-28T13:11:16.484Z,5.10
2024-02-28T13:13:27.137Z,5.40
2024-02-28T13:15:37.213Z,6.10
2024-02-28T13:17:48.539Z,6.60
2024-02-28T13:19:58.594Z,7.20
2024-02-28T13:22:08.557Z,7.00
2024-02-28T13:24:20.136Z,6.60
2024-02-28T13:26:30.066Z,6.80
2024-02-28T13:28:41.807Z,7.90
2024-02-28T13:30:53.150Z,7.50
2024-02-28T13:33:03.250Z,7.10
2024-02-28T13:35:14.452Z,8.90
2024-02-28T13:37:24.984Z,5.60
2024-02-28T13:39:36.175Z,6.70
2024-02-28T13:41:46.346Z,6.00
2024-02-28T13:43:56.790Z,6.60
2024-02-28T13:46:06.788Z,6.50
2024-02-28T13:48:22.527Z,6.80
2024-02-28T13:50:33.898Z,6.60
2024-02-28T13:52:43.851Z,7.40
2024-02-28T13:54:53.985Z,8.10
2024-02-28T13:57:06.367Z,5.50
2024-02-28T13:59:16.929Z,6.30
2024-02-28T14:01:26.905Z,5.60
2024-02-28T14:03:37.395Z,5.50
2024-02-28T14:05:48.084Z,8.00
2024-02-28T14:07:58.745Z,6.70
2024-02-28T14:10:11.587Z,6.50
2024-02-28T14:12:21.385Z,7.00
2024-02-28T14:14:31.905Z,8.50
2024-02-28T14:16:41.975Z,5.40
2024-02-28T14:18:51.961Z,5.40
2024-02-28T14:21:05.090Z,4.10
2024-02-28T14:23:16.372Z,7.20
2024-02-28T14:25:26.574Z,6.40
2024-02-28T14:27:36.982Z,8.10
2024-02-28T14:29:46.803Z,7.40
2024-02-28T14:31:56.572Z,6.20
2024-02-28T14:34:06.672Z,7.00
2024-02-28T14:36:16.502Z,5.60
2024-02-28T14:38:26.880Z,6.10
2024-02-28T14:40:36.950Z,7.90
2024-02-28T14:42:47.980Z,7.10
2024-02-28T14:44:58.284Z,7.70
2024-02-28T14:47:08.449Z,9.40
2024-02-28T14:49:18.949Z,9.50
2024-02-28T14:51:28.972Z,8.50
2024-02-28T14:53:38.737Z,6.70
2024-02-28T14:55:48.854Z,6.60
2024-02-28T14:57:59.095Z,7.80
2024-02-28T15:00:12.290Z,7.80
2024-02-28T15:02:22.837Z,7.30
2024-02-28T15:04:32.606Z,8.10
2024-02-28T15:06:42.599Z,8.50
2024-02-28T15:08:52.521Z,7.20
2024-02-28T15:11:02.580Z,6.30
2024-02-28T15:13:12.429Z,5.00
2024-02-28T15:15:23.043Z,5.90
2024-02-28T15:17:33.205Z,6.60
2024-02-28T15:19:43.106Z,5.30
2024-02-28T15:21:53.063Z,5.20
2024-02-28T15:24:03.072Z,6.50
2024-02-28T15:26:12.959Z,3.30
2024-02-28T15:28:23.024Z,2.60
2024-02-28T15:30:32.919Z,2.90
2024-02-28T15:32:43.961Z,2.10
2024-02-28T15:34:54.474Z,3.30
2024-02-28T15:37:04.351Z,4.10
2024-02-28T15:39:14.476Z,4.20
2024-02-28T15:41:25.439Z,3.80
2024-02-28T15:43:36.432Z,6.00
2024-02-28T15:45:46.642Z,4.90
2024-02-28T15:47:56.766Z,5.20
2024-02-28T15:50:10.303Z,8.80
2024-02-28T15:52:20.307Z,6.50
2024-02-28T15:54:30.232Z,7.80
2024-02-28T15:56:41.417Z,9.00
2024-02-28T15:58:51.500Z,10.70
2024-02-28T16:01:01.983Z,7.50
2024-02-28T16:03:12.438Z,7.90
2024-02-28T16:05:26.343Z,7.30
2024-02-28T16:07:36.602Z,7.50
2024-02-28T16:09:47.442Z,9.70
2024-02-28T16:11:58.356Z,6.60
2024-02-28T16:14:08.428Z,8.40
2024-02-28T16:16:19.104Z,6.80
2024-02-28T16:18:30.053Z,6.50
2024-02-28T16:20:40.092Z,7.40
2024-02-28T16:22:50.478Z,8.00
2024-02-28T16:25:00.539Z,9.10
2024-02-28T16:27:10.814Z,9.40
2024-02-28T16:29:21.190Z,11.70
2024-02-28T16:31:31.315Z,8.00
2024-02-28T16:33:42.005Z,6.40
2024-02-28T16:35:52.242Z,6.60
2024-02-28T16:38:02.153Z,6.80
2024-02-28T16:40:13.261Z,8.00
2024-02-28T16:42:26.257Z,6.10
2024-02-28T16:44:36.251Z,7.30
2024-02-28T16:46:46.729Z,7.90
2024-02-28T16:48:56.780Z,5.20
2024-02-28T16:51:07.226Z,8.20
2024-02-28T16:53:17.446Z,5.90
2024-02-28T16:55:27.767Z,6.10
2024-02-28T16:57:42.173Z,7.40
2024-02-28T16:59:52.648Z,5.90
2024-02-28T17:02:02.631Z,6.80
2024-02-28T17:04:12.582Z,6.30
2024-02-28T17:06:23.161Z,6.10
2024-02-28T17:08:34.436Z,6.30
2024-02-28T17:10:45.020Z,6.30
2024-02-28T17:12:54.814Z,5.90
2024-02-28T17:15:04.754Z,5.20
2024-02-28T17:17:16.390Z,5.20
2024-02-28T17:19:26.544Z,3.90
2024-02-28T17:21:37.229Z,5.20
2024-02-28T17:23:47.114Z,4.20
2024-02-28T17:25:57.236Z,3.50
2024-02-28T17:28:07.507Z,5.20
2024-02-28T17:30:17.873Z,3.30
2024-02-28T17:32:28.406Z,4.10
2024-02-28T17:34:38.387Z,4.30
2024-02-28T17:36:49.102Z,3.00
2024-02-28T17:38:58.867Z,3.80
2024-02-28T17:41:10.278Z,6.10
2024-02-28T17:43:20.922Z,4.70
2024-02-28T17:45:31.226Z,6.00
2024-02-28T17:47:41.556Z,5.30
2024-02-28T17:49:51.692Z,1.60
2024-02-28T17:52:01.770Z,3.90
2024-02-28T17:54:11.995Z,2.80
2024-02-28T17:56:22.152Z,5.30
2024-02-28T17:58:32.667Z,4.60
2024-02-28T18:00:42.843Z,4.80
2024-02-28T18:02:52.796Z,5.90
2024-02-28T18:05:02.805Z,4.90
2024-02-28T18:07:12.749Z,6.20
2024-02-28T18:09:23.367Z,8.70
2024-02-28T18:11:34.837Z,3.90
2024-02-28T18:13:44.923Z,3.50
2024-02-28T18:15:55.570Z,3.70
2024-02-28T18:18:06.221Z,3.60
2024-02-28T18:20:16.381Z,5.20
2024-02-28T18:22:26.642Z,5.50
2024-02-28T18:24:36.556Z,7.20
2024-02-28T18:26:46.402Z,6.50
2024-02-28T18:28:58.772Z,6.80
2024-02-28T18:31:09.728Z,10.00
2024-02-28T18:33:19.804Z,7.20
2024-02-28T18:35:32.950Z,9.50
2024-02-28T18:37:43.826Z,10.40
2024-02-28T18:39:53.826Z,6.10
2024-02-28T18:42:03.878Z,7.70
2024-02-28T18:44:16.270Z,7.40
2024-02-28T18:46:25.988Z,9.40
2024-02-28T18:48:38.380Z,9.90
2024-02-28T18:50:48.530Z,9.40
2024-02-28T18:52:58.317Z,8.30
2024-02-28T18:55:09.183Z,8.30
2024-02-28T18:57:19.429Z,6.30
2024-02-28T18:59:29.437Z,5.80
2024-02-28T19:01:39.428Z,6.00
2024-02-28T19:03:49.615Z,6.20
2024-02-28T19:06:00.120Z,7.90
2024-02-28T19:08:10.614Z,10.20
2024-02-28T19:10:22.025Z,6.70
2024-02-28T19:12:32.860Z,9.40
2024-02-28T19:14:42.664Z,8.50
2024-02-28T19:16:53.247Z,6.80
2024-02-28T19:19:03.908Z,9.30
2024-02-28T19:21:13.913Z,10.70
2024-02-28T19:23:24.180Z,7.30
2024-02-28T19:25:34.443Z,7.20
2024-02-28T19:27:44.586Z,9.40
2024-02-28T19:29:54.487Z,10.50
2024-02-28T19:32:04.341Z,8.50
2024-02-28T19:34:15.282Z,7.70
2024-02-28T19:36:25.239Z,11.00
2024-02-28T19:38:35.199Z,9.20
2024-02-28T19:40:45.172Z,9.30
2024-02-28T19:42:55.124Z,10.70
2024-02-28T19:45:05.226Z,8.30
2024-02-28T19:47:15.065Z,8.50
2024-02-28T19:49:26.408Z,7.00
2024-02-28T19:51:36.480Z,6.60
2024-02-28T19:53:46.708Z,10.50
2024-02-28T19:55:56.722Z,10.20
2024-02-28T19:58:07.418Z,7.40
2024-02-28T20:00:19.406Z,8.50
2024-02-28T20:02:29.435Z,9.60
2024-02-28T20:04:39.477Z,7.80
2024-02-28T20:06:49.432Z,8.90
2024-02-28T20:08:59.556Z,7.50
2024-02-28T20:11:10.117Z,6.50
2024-02-28T20:13:20.230Z,8.10
2024-02-28T20:15:30.147Z,7.80
2024-02-28T20:17:40.071Z,7.70
2024-02-28T20:19:50.708Z,9.60
2024-02-28T20:22:00.680Z,9.50
2024-02-28T20:24:10.982Z,7.90
2024-02-28T20:26:22.235Z,8.00
2024-02-28T20:28:32.360Z,9.10
2024-02-28T20:30:42.301Z,11.50
2024-02-28T20:32:52.638Z,8.50
2024-02-28T20:35:02.630Z,8.80
2024-02-28T20:37:12.509Z,6.90
2024-02-28T20:39:22.794Z,6.90
2024-02-28T20:41:35.139Z,6.70
2024-02-28T20:43:45.207Z,10.30
2024-02-28T20:45:56.296Z,7.90
2024-02-28T20:48:06.380Z,8.60
2024-02-28T20:50:17.267Z,8.90
2024-02-28T20:52:27.547Z,8.90
2024-02-28T20:54:37.635Z,11.40
2024-02-28T20:56:49.074Z,8.00
2024-02-28T20:59:00.704Z,10.20
2024-02-28T21:01:10.689Z,9.10
2024-02-28T21:03:21.158Z,9.80
2024-02-28T21:05:32.213Z,9.20
2024-02-28T21:07:51.749Z,7.80
2024-02-28T21:10:03.238Z,8.80
2024-02-28T21:12:15.293Z,9.90
2024-02-28T21:14:25.173Z,9.90
2024-02-28T21:16:34.928Z,9.90
2024-02-28T21:18:44.952Z,8.20
2024-02-28T21:20:56.572Z,6.60
2024-02-28T21:23:06.690Z,8.50
2024-02-28T21:25:16.687Z,7.40
2024-02-28T21:27:26.618Z,10.00
2024-02-28T21:29:36.721Z,8.60
2024-02-28T21:31:46.828Z,8.40
2024-02-28T21:33:57.804Z,9.00
2024-02-28T21:36:08.104Z,10.40
2024-02-28T21:38:18.707Z,10.80
2024-02-28T21:40:29.554Z,11.70
2024-02-28T21:42:40.014Z,10.60
2024-02-28T21:44:50.388Z,11.60
2024-02-28T21:47:02.640Z,9.00
2024-02-28T21:49:13.972Z,13.00
2024-02-28T21:51:25.173Z,11.70
2024-02-28T21:53:35.165Z,9.00
2024-02-28T21:55:45.692Z,7.80
2024-02-28T21:57:56.419Z,7.70
2024-02-28T22:00:06.782Z,8.20
2024-02-28T22:02:20.031Z,10.10
2024-02-28T22:04:29.861Z,8.60
2024-02-28T22:06:40.270Z,7.10
2024-02-28T22:08:50.170Z,12.30
2024-02-28T22:10:59.969Z,10.50
2024-02-28T22:13:10.936Z,9.90
2024-02-28T22:15:21.166Z,9.20
2024-02-28T22:17:31.027Z,11.10
2024-02-28T22:19:41.045Z,10.50
2024-02-28T22:21:51.496Z,9.10
2024-02-28T22:24:01.512Z,12.60
2024-02-28T22:26:11.420Z,11.10
2024-02-28T22:28:21.564Z,10.10
2024-02-28T22:30:32.259Z,9.40
2024-02-28T22:32:42.138Z,9.20
2024-02-28T22:34:52.052Z,11.50
2024-02-28T22:37:02.546Z,10.30
2024-02-28T22:39:13.522Z,9.00
2024-02-28T22:41:27.835Z,10.20
2024-02-28T22:43:37.667Z,10.10
2024-02-28T22:45:48.021Z,10.10
2024-02-28T22:47:58.469Z,10.10
2024-02-28T22:50:09.467Z,9.50
2024-02-28T22:52:19.732Z,10.20
2024-02-28T22:54:29.772Z,10.40
2024-02-28T22:56:39.734Z,12.40
2024-02-28T22:58:49.694Z,10.60
2024-02-28T23:00:59.609Z,8.90
2024-02-28T23:03:10.065Z,9.60
2024-02-28T23:05:20.339Z,8.50
2024-02-28T23:07:30.310Z,10.90
2024-02-28T23:09:40.085Z,9.90
2024-02-28T23:11:50.761Z,10.50
2024-02-28T23:14:00.817Z,11.80
2024-02-28T23:16:11.300Z,11.50
2024-02-28T23:18:21.247Z,10.20
2024-02-28T23:20:35.281Z,10.70
2024-02-28T23:22:45.725Z,9.80
2024-02-28T23:24:55.672Z,9.50
2024-02-28T23:27:05.653Z,10.10
2024-02-28T23:29:15.567Z,9.40
2024-02-28T23:31:25.403Z,10.60
2024-02-28T23:33:35.269Z,11.20
2024-02-28T23:35:45.768Z,7.70
2024-02-28T23:37:55.827Z,9.80
2024-02-28T23:40:08.185Z,10.90
2024-02-28T23:44:25.881Z,10.00
2024-02-28T23:46:35.679Z,12.80
2024-02-28T23:48:45.653Z,11.10
2024-02-28T23:50:56.110Z,8.60
2024-02-28T23:53:06.655Z,9.20
2024-02-28T23:55:17.028Z,9.90
2024-02-28T23:57:27.523Z,8.70
2024-02-28T23:59:37.597Z,6.90
